createdAt,value
2022-09-01T00:00:13.639Z,6.30
2022-09-01T00:02:44.456Z,5.60
2022-09-01T00:05:13.218Z,4.88
2022-09-01T00:07:40.682Z,5.13
2022-09-01T00:10:08.954Z,5.72
2022-09-01T00:12:38.377Z,5.38
2022-09-01T00:15:08.810Z,5.65
2022-09-01T00:17:40.111Z,5.50
2022-09-01T00:20:08.036Z,5.38
2022-09-01T00:22:35.218Z,6.82
2022-09-01T00:25:02.270Z,8.25
2022-09-01T00:27:30.962Z,14.38
2022-09-01T00:30:00.133Z,17.90
2022-09-01T00:32:28.047Z,19.58
2022-09-01T00:34:55.724Z,26.70
2022-09-01T00:37:22.992Z,23.85
2022-09-01T00:39:50.339Z,21.13
2022-09-01T00:42:17.595Z,13.05
2022-09-01T00:44:44.795Z,20.83
2022-09-01T00:47:14.662Z,16.58
2022-09-01T00:49:46.940Z,7.47
2022-09-01T00:52:19.038Z,7.03
2022-09-01T00:54:51.512Z,7.18
2022-09-01T00:57:18.997Z,6.82
2022-09-01T00:59:53.169Z,6.60
2022-09-01T01:02:20.557Z,5.78
2022-09-01T01:04:47.682Z,6.22
2022-09-01T01:07:17.069Z,6.05
2022-09-01T01:09:46.247Z,5.72
2022-09-01T01:12:18.612Z,6.30
2022-09-01T01:14:50.595Z,6.22
2022-09-01T01:17:22.084Z,6.38
2022-09-01T01:20:12.457Z,7.80
2022-09-01T01:23:11.042Z,7.47
2022-09-01T01:25:49.174Z,7.75
2022-09-01T01:28:24.782Z,6.93
2022-09-01T01:31:01.610Z,7.32
2022-09-01T01:33:42.999Z,7.45
2022-09-01T01:36:16.553Z,7.63
2022-09-01T01:38:47.035Z,7.95
2022-09-01T01:41:17.723Z,8.50
2022-09-01T01:43:45.031Z,8.60
2022-09-01T01:46:14.904Z,8.38
2022-09-01T01:48:43.188Z,8.32
2022-09-01T01:51:12.053Z,8.95
2022-09-01T01:53:40.841Z,10.02
2022-09-01T01:56:09.609Z,13.50
2022-09-01T01:58:37.468Z,12.25
2022-09-01T02:01:12.841Z,10.88
2022-09-01T02:03:41.094Z,9.98
2022-09-01T02:06:10.549Z,9.20
2022-09-01T02:08:39.494Z,9.45
2022-09-01T02:11:07.690Z,7.78
2022-09-01T02:13:36.073Z,8.05
2022-09-01T02:16:17.036Z,8.27
2022-09-01T02:18:48.997Z,7.40
2022-09-01T02:21:22.653Z,8.07
2022-09-01T02:24:02.264Z,8.10
2022-09-01T02:26:34.906Z,8.13
2022-09-01T02:29:06.056Z,8.38
2022-09-01T02:31:39.979Z,7.68
2022-09-01T02:34:14.244Z,7.90
2022-09-01T02:36:48.314Z,8.10
2022-09-01T02:39:23.695Z,8.13
2022-09-01T02:41:52.319Z,8.50
2022-09-01T02:44:24.250Z,7.90
2022-09-01T02:46:51.599Z,8.48
2022-09-01T02:49:28.388Z,9.02
2022-09-01T02:52:01.665Z,9.07
2022-09-01T02:54:32.532Z,9.05
2022-09-01T02:57:00.722Z,9.63
2022-09-01T02:59:30.532Z,9.45
2022-09-01T03:02:00.412Z,9.52
2022-09-01T03:04:27.862Z,10.43
2022-09-01T03:06:59.055Z,10.18
2022-09-01T03:09:26.413Z,9.63
2022-09-01T03:11:54.381Z,10.18
2022-09-01T03:14:24.922Z,10.20
2022-09-01T03:16:52.465Z,9.70
2022-09-01T03:19:22.276Z,10.25
2022-09-01T03:21:51.632Z,10.75
2022-09-01T03:24:26.079Z,9.90
2022-09-01T03:26:56.922Z,10.37
2022-09-01T03:29:24.898Z,10.13
2022-09-01T03:31:53.030Z,8.98
2022-09-01T03:34:23.744Z,9.57
2022-09-01T03:36:54.978Z,9.68
2022-09-01T03:39:29.873Z,9.10
2022-09-01T03:41:58.945Z,8.85
2022-09-01T03:44:27.488Z,9.75
2022-09-01T03:46:54.960Z,9.30
2022-09-01T03:49:27.896Z,9.60
2022-09-01T03:51:58.424Z,10.00
2022-09-01T03:54:28.565Z,9.80
2022-09-01T03:56:59.655Z,9.45
2022-09-01T03:59:28.692Z,9.55
2022-09-01T04:01:56.928Z,9.80
2022-09-01T04:04:24.780Z,9.48
2022-09-01T04:06:52.642Z,9.82
2022-09-01T04:09:21.183Z,9.23
2022-09-01T04:11:48.552Z,9.20
2022-09-01T04:14:20.582Z,8.85
2022-09-01T04:17:08.867Z,9.40
2022-09-01T04:19:39.718Z,9.57
2022-09-01T04:22:14.396Z,10.02
2022-09-01T04:24:46.601Z,10.13
2022-09-01T04:27:18.316Z,9.73
2022-09-01T04:29:47.167Z,8.90
2022-09-01T04:32:15.966Z,8.95
2022-09-01T04:34:47.090Z,9.20
2022-09-01T04:37:19.132Z,8.48
2022-09-01T04:39:55.739Z,8.80
2022-09-01T04:42:29.884Z,10.20
2022-09-01T04:45:07.163Z,9.98
2022-09-01T04:47:45.543Z,10.15
2022-09-01T04:50:17.990Z,8.90
2022-09-01T04:53:06.323Z,9.43
2022-09-01T04:55:50.024Z,9.13
2022-09-01T04:58:22.138Z,9.05
2022-09-01T05:00:53.463Z,9.13
2022-09-01T05:03:24.415Z,7.43
2022-09-01T05:06:23.851Z,8.85
2022-09-01T05:08:58.532Z,9.45
2022-09-01T05:11:45.603Z,9.25
2022-09-01T05:14:30.925Z,11.77
2022-09-01T05:16:59.767Z,8.80
2022-09-01T05:19:30.905Z,8.97
2022-09-01T05:22:00.602Z,8.85
2022-09-01T05:24:30.574Z,7.88
2022-09-01T05:27:01.225Z,8.85
2022-09-01T05:29:29.764Z,8.07
2022-09-01T05:31:58.832Z,8.90
2022-09-01T05:34:27.343Z,8.70
2022-09-01T05:36:58.212Z,8.98
2022-09-01T05:39:27.329Z,7.85
2022-09-01T05:41:54.773Z,7.78
2022-09-01T05:44:23.091Z,7.50
2022-09-01T05:46:53.678Z,8.20
2022-09-01T05:49:21.470Z,8.07
2022-09-01T05:51:52.553Z,8.07
2022-09-01T05:56:50.887Z,8.73
2022-09-01T06:02:01.107Z,6.45
2022-09-01T06:04:30.290Z,6.15
2022-09-01T06:07:09.017Z,5.75
2022-09-01T06:09:43.750Z,5.65
2022-09-01T06:12:18.654Z,5.40
2022-09-01T06:14:48.535Z,5.60
2022-09-01T06:17:19.715Z,5.72
2022-09-01T06:19:47.075Z,6.30
2022-09-01T06:22:16.200Z,5.13
2022-09-01T06:24:43.887Z,5.47
2022-09-01T06:27:12.895Z,5.43
2022-09-01T06:29:41.792Z,4.80
2022-09-01T06:32:13.229Z,5.88
2022-09-01T06:34:43.790Z,4.47
2022-09-01T06:37:13.427Z,5.00
2022-09-01T06:39:44.221Z,5.00
2022-09-01T06:42:14.116Z,5.10
2022-09-01T06:44:51.263Z,5.35
2022-09-01T06:47:19.500Z,5.00
2022-09-01T06:49:46.660Z,5.32
2022-09-01T06:52:22.706Z,5.55
2022-09-01T06:54:53.346Z,4.93
2022-09-01T07:00:20.247Z,5.20
2022-09-01T07:02:55.061Z,4.85
2022-09-01T07:16:30.107Z,5.20
2022-09-01T07:17:24.475Z,5.15
2022-09-01T07:19:52.121Z,5.78
2022-09-01T07:25:12.171Z,4.78
2022-09-01T07:27:55.719Z,5.00
2022-09-01T07:30:29.206Z,7.10
2022-09-01T07:33:41.456Z,4.63
2022-09-01T07:36:25.700Z,5.20
2022-09-01T07:44:29.178Z,4.70
2022-09-01T07:53:12.713Z,4.68
2022-09-01T07:55:44.356Z,5.03
2022-09-01T07:58:13.585Z,5.03
2022-09-01T08:00:47.436Z,4.63
2022-09-01T08:03:19.136Z,3.90
2022-09-01T08:05:47.587Z,4.50
2022-09-01T08:08:27.760Z,4.43
2022-09-01T08:11:04.241Z,4.50
2022-09-01T08:13:41.637Z,4.47
2022-09-01T08:16:17.970Z,4.32
2022-09-01T08:18:49.059Z,4.32
2022-09-01T08:21:41.070Z,4.60
2022-09-01T08:27:08.510Z,4.13
2022-09-01T08:29:35.957Z,5.13
2022-09-01T08:32:03.538Z,4.00
2022-09-01T08:34:33.566Z,4.30
2022-09-01T08:37:01.095Z,3.95
2022-09-01T08:39:28.463Z,3.88
2022-09-01T08:42:12.417Z,4.40
2022-09-01T08:45:07.826Z,4.00
2022-09-01T08:47:55.970Z,4.30
2022-09-01T08:50:23.890Z,3.75
2022-09-01T08:53:21.164Z,3.75
2022-09-01T08:55:55.790Z,3.20
2022-09-01T08:58:23.158Z,4.00
2022-09-01T09:01:41.768Z,3.80
2022-09-01T09:04:19.902Z,3.95
2022-09-01T09:06:53.759Z,3.42
2022-09-01T09:09:32.315Z,3.78
2022-09-01T09:12:25.362Z,3.13
2022-09-01T09:15:11.947Z,3.80
2022-09-01T09:17:56.020Z,3.28
2022-09-01T09:20:28.148Z,3.38
2022-09-01T09:22:59.353Z,3.70
2022-09-01T09:25:29.786Z,3.65
2022-09-01T09:28:00.821Z,3.78
2022-09-01T09:30:31.475Z,3.72
2022-09-01T09:36:17.190Z,3.63
2022-09-01T09:38:44.400Z,3.38
2022-09-01T09:41:26.907Z,3.63
2022-09-01T09:44:16.633Z,3.83
2022-09-01T09:46:47.719Z,4.00
2022-09-01T09:49:21.682Z,3.90
2022-09-01T09:52:18.281Z,3.35
2022-09-01T09:55:30.575Z,3.70
2022-09-01T09:58:09.615Z,3.33
2022-09-01T10:00:37.094Z,3.78
2022-09-01T10:03:12.449Z,3.35
2022-09-01T10:05:48.923Z,3.53
2022-09-01T10:08:31.496Z,3.38
2022-09-01T10:10:59.223Z,3.55
2022-09-01T10:13:33.575Z,3.33
2022-09-01T10:16:05.423Z,3.30
2022-09-01T10:18:38.680Z,3.40
2022-09-01T10:21:15.266Z,3.28
2022-09-01T10:23:43.521Z,2.88
2022-09-01T10:26:23.131Z,3.50
2022-09-01T10:29:00.154Z,3.97
2022-09-01T10:31:32.229Z,3.42
2022-09-01T10:34:05.464Z,3.45
2022-09-01T10:36:37.804Z,3.45
2022-09-01T10:39:08.753Z,4.22
2022-09-01T10:41:42.616Z,4.03
2022-09-01T10:44:19.395Z,4.07
2022-09-01T10:46:51.364Z,3.83
2022-09-01T10:49:38.605Z,3.58
2022-09-01T10:52:12.950Z,3.88
2022-09-01T10:54:58.069Z,3.75
2022-09-01T10:57:51.906Z,3.40
2022-09-01T11:06:13.707Z,3.42
2022-09-01T11:08:51.057Z,3.35
2022-09-01T11:12:05.831Z,4.70
2022-09-01T11:14:36.082Z,3.55
2022-09-01T11:17:26.511Z,4.03
2022-09-01T11:20:12.871Z,3.30
2022-09-01T11:22:46.838Z,3.70
2022-09-01T11:25:39.266Z,3.75
2022-09-01T11:28:18.180Z,3.88
2022-09-01T11:30:55.519Z,3.90
2022-09-01T11:33:33.677Z,3.33
2022-09-01T11:36:24.343Z,3.65
2022-09-01T11:38:58.926Z,3.47
2022-09-01T11:41:34.140Z,3.35
2022-09-01T11:44:04.431Z,5.30
2022-09-01T11:46:34.899Z,4.47
2022-09-01T11:49:18.521Z,3.65
2022-09-01T11:52:17.062Z,3.67
2022-09-01T11:54:46.860Z,3.45
2022-09-01T11:57:30.144Z,3.63
2022-09-01T12:00:00.077Z,3.55
2022-09-01T12:02:36.727Z,3.40
2022-09-01T12:05:41.084Z,3.60
2022-09-01T12:08:18.455Z,3.38
2022-09-01T12:11:03.614Z,3.30
2022-09-01T12:13:30.926Z,3.83
2022-09-01T12:16:19.010Z,3.45
2022-09-01T12:18:50.012Z,3.20
2022-09-01T12:21:42.809Z,3.60
2022-09-01T12:24:34.307Z,3.42
2022-09-01T12:27:02.351Z,3.53
2022-09-01T12:29:32.149Z,2.85
2022-09-01T12:32:00.792Z,3.20
2022-09-01T12:34:33.627Z,3.33
2022-09-01T12:37:10.442Z,3.22
2022-09-01T12:39:46.250Z,2.90
2022-09-01T12:42:26.056Z,2.90
2022-09-01T12:45:09.049Z,2.65
2022-09-01T12:47:36.389Z,4.10
2022-09-01T12:50:16.966Z,3.67
2022-09-01T12:52:53.554Z,3.47
2022-09-01T12:58:12.819Z,2.90
2022-09-01T13:01:00.827Z,3.80
2022-09-01T13:03:30.236Z,3.90
2022-09-01T13:05:59.920Z,3.33
2022-09-01T13:08:34.213Z,3.53
2022-09-01T13:11:15.860Z,4.13
2022-09-01T13:13:43.579Z,3.20
2022-09-01T13:16:13.170Z,3.10
2022-09-01T13:21:31.641Z,3.40
2022-09-01T13:23:59.220Z,3.33
2022-09-01T13:26:26.545Z,3.50
2022-09-01T13:28:54.050Z,3.17
2022-09-01T13:31:29.267Z,3.20
2022-09-01T13:34:20.570Z,3.70
2022-09-01T13:36:48.575Z,3.30
2022-09-01T13:39:19.042Z,3.95
2022-09-01T13:41:48.556Z,3.05
2022-09-01T13:44:17.714Z,3.17
2022-09-01T13:47:28.271Z,3.42
2022-09-01T13:52:21.695Z,3.30
2022-09-01T13:54:50.076Z,3.72
2022-09-01T13:57:19.618Z,3.67
2022-09-01T13:59:46.730Z,3.20
2022-09-01T14:02:13.950Z,3.30
2022-09-01T14:04:41.509Z,3.33
2022-09-01T14:07:08.845Z,3.15
2022-09-01T14:09:38.951Z,3.25
2022-09-01T14:12:07.945Z,3.10
2022-09-01T14:17:26.514Z,5.18
2022-09-01T14:19:53.851Z,3.50
2022-09-01T14:22:21.226Z,3.60
2022-09-01T14:24:49.007Z,2.88
2022-09-01T14:27:16.329Z,3.22
2022-09-01T14:32:09.993Z,3.47
2022-09-01T14:34:37.645Z,3.35
2022-09-01T14:37:05.091Z,3.17
2022-09-01T14:39:32.493Z,3.25
2022-09-01T14:42:00.741Z,3.15
2022-09-01T14:44:27.970Z,3.33
2022-09-01T14:46:55.301Z,3.25
2022-09-01T14:49:22.691Z,3.40
2022-09-01T14:54:40.066Z,3.53
2022-09-01T14:59:54.760Z,3.47
2022-09-01T15:02:22.170Z,3.28
2022-09-01T15:04:49.328Z,3.40
2022-09-01T15:07:16.630Z,3.30
2022-09-01T15:09:43.785Z,4.85
2022-09-01T15:12:11.046Z,4.32
2022-09-01T15:14:38.477Z,3.88
2022-09-01T15:17:07.258Z,4.38
2022-09-01T15:19:35.397Z,4.78
2022-09-01T15:22:03.374Z,4.30
2022-09-01T15:24:30.835Z,4.80
2022-09-01T15:26:58.242Z,4.25
2022-09-01T15:30:17.359Z,4.30
2022-09-01T15:32:50.527Z,4.53
2022-09-01T15:35:19.487Z,4.57
2022-09-01T15:37:48.256Z,4.40
2022-09-01T15:40:16.665Z,4.30
2022-09-01T15:42:43.911Z,4.35
2022-09-01T15:45:15.063Z,4.70
2022-09-01T15:50:16.843Z,3.80
2022-09-01T15:52:59.610Z,3.63
2022-09-01T15:55:41.190Z,4.00
2022-09-01T15:58:09.994Z,3.88
2022-09-01T16:00:37.267Z,4.43
2022-09-01T16:03:06.076Z,3.63
2022-09-01T16:05:36.774Z,4.03
2022-09-01T16:08:09.845Z,3.60
2022-09-01T16:10:40.153Z,4.90
2022-09-01T16:13:08.547Z,3.90
2022-09-01T16:15:51.220Z,4.10
2022-09-01T16:18:42.285Z,4.28
2022-09-01T16:21:30.978Z,4.00
2022-09-01T16:24:06.055Z,4.75
2022-09-01T16:26:36.202Z,4.20
2022-09-01T16:29:11.247Z,4.32
2022-09-01T16:31:42.834Z,5.05
2022-09-01T16:34:14.801Z,5.28
2022-09-01T16:36:41.848Z,4.82
2022-09-01T16:39:47.284Z,5.10
2022-09-01T16:42:46.893Z,5.25
2022-09-01T16:45:40.893Z,6.03
2022-09-01T16:48:19.602Z,4.15
2022-09-01T16:51:03.011Z,4.70
2022-09-01T16:53:53.234Z,4.38
2022-09-01T16:56:35.750Z,5.07
2022-09-01T16:59:14.450Z,5.60
2022-09-01T17:02:07.136Z,29.08
2022-09-01T17:04:47.769Z,23.70
2022-09-01T17:07:15.017Z,8.87
2022-09-01T17:09:46.452Z,5.22
2022-09-01T17:12:27.858Z,5.30
2022-09-01T17:17:42.427Z,5.97
2022-09-01T17:20:12.089Z,5.22
2022-09-01T17:22:46.654Z,5.68
2022-09-01T17:25:26.147Z,6.32
2022-09-01T17:28:25.603Z,5.72
2022-09-01T17:31:28.539Z,4.95
2022-09-01T17:34:31.473Z,6.20
2022-09-01T17:37:06.283Z,5.43
2022-09-01T17:40:15.558Z,6.20
2022-09-01T17:43:05.087Z,5.53
2022-09-01T17:45:52.813Z,5.18
2022-09-01T17:48:52.854Z,4.75
2022-09-01T17:51:20.090Z,4.28
2022-09-01T17:54:02.424Z,4.68
2022-09-01T17:56:45.380Z,5.68
2022-09-01T17:59:22.668Z,4.35
2022-09-01T18:01:56.133Z,4.72
2022-09-01T18:04:35.672Z,4.20
2022-09-01T18:07:14.655Z,4.20
2022-09-01T18:09:54.455Z,4.57
2022-09-01T18:12:30.996Z,4.72
2022-09-01T18:15:19.967Z,6.63
2022-09-01T18:18:02.714Z,5.47
2022-09-01T18:20:39.185Z,6.20
2022-09-01T18:23:12.495Z,5.88
2022-09-01T18:25:51.132Z,5.13
2022-09-01T18:28:19.098Z,6.82
2022-09-01T18:31:25.531Z,28.30
2022-09-01T18:34:08.383Z,9.55
2022-09-01T18:36:44.915Z,4.47
2022-09-01T18:39:41.361Z,7.50
2022-09-01T18:42:34.325Z,5.30
2022-09-01T18:45:14.138Z,5.03
2022-09-01T18:48:01.507Z,4.90
2022-09-01T18:50:43.760Z,4.85
2022-09-01T18:53:34.236Z,5.03
2022-09-01T18:56:37.450Z,5.40
2022-09-01T18:59:36.764Z,4.93
2022-09-01T19:02:22.935Z,5.20
2022-09-01T19:04:57.901Z,5.22
2022-09-01T19:07:58.246Z,6.00
2022-09-01T19:10:42.704Z,6.22
2022-09-01T19:13:28.228Z,5.20
2022-09-01T19:16:24.793Z,5.15
2022-09-01T19:18:52.017Z,5.10
2022-09-01T19:21:25.305Z,5.50
2022-09-01T19:24:13.686Z,5.15
2022-09-01T19:26:55.050Z,4.85
2022-09-01T19:32:07.112Z,5.40
2022-09-01T19:34:41.798Z,6.38
2022-09-01T19:37:10.768Z,5.68
2022-09-01T19:39:44.732Z,6.35
2022-09-01T19:42:18.342Z,5.75
2022-09-01T19:45:27.638Z,6.15
2022-09-01T19:48:19.224Z,6.13
2022-09-01T19:53:50.925Z,5.93
2022-09-01T19:56:23.661Z,5.75
2022-09-01T19:59:14.198Z,5.35
2022-09-01T20:02:00.233Z,5.30
2022-09-01T20:04:47.402Z,5.55
2022-09-01T20:07:44.745Z,5.78
2022-09-01T20:10:14.944Z,5.63
2022-09-01T20:13:00.545Z,6.40
2022-09-01T20:15:40.265Z,5.63
2022-09-01T20:18:13.712Z,5.80
2022-09-01T20:20:48.806Z,5.53
2022-09-01T20:23:42.996Z,5.85
2022-09-01T20:26:19.060Z,6.20
2022-09-01T20:29:16.611Z,5.85
2022-09-01T20:31:46.543Z,5.72
2022-09-01T20:34:49.071Z,5.40
2022-09-01T20:37:22.056Z,6.15
2022-09-01T20:40:02.700Z,5.30
2022-09-01T20:42:43.892Z,5.07
2022-09-01T20:45:27.495Z,4.93
2022-09-01T20:48:01.888Z,5.53
2022-09-01T20:50:44.484Z,4.88
2022-09-01T20:53:30.293Z,4.75
2022-09-01T20:56:18.761Z,4.93
2022-09-01T20:59:32.268Z,5.18
2022-09-01T21:02:10.340Z,4.38
2022-09-01T21:04:47.880Z,4.68
2022-09-01T21:07:41.966Z,4.18
2022-09-01T21:10:53.890Z,4.57
2022-09-01T21:13:33.838Z,3.95
2022-09-01T21:16:36.141Z,4.75
2022-09-01T21:19:22.502Z,4.43
2022-09-01T21:22:01.674Z,4.65
2022-09-01T21:24:28.991Z,4.05
2022-09-01T21:26:58.183Z,4.70
2022-09-01T21:29:51.027Z,3.75
2022-09-01T21:32:18.502Z,4.50
2022-09-01T21:34:47.511Z,3.83
2022-09-01T21:37:15.222Z,3.70
2022-09-01T21:39:42.331Z,3.85
2022-09-01T21:42:10.966Z,4.88
2022-09-01T21:44:39.836Z,4.15
2022-09-01T21:47:07.068Z,3.90
2022-09-01T21:49:34.371Z,3.53
2022-09-01T21:52:01.640Z,3.90
2022-09-01T21:54:28.823Z,4.57
2022-09-01T21:56:55.965Z,4.80
2022-09-01T21:59:23.142Z,4.43
2022-09-01T22:01:50.850Z,4.28
2022-09-01T22:04:23.158Z,4.22
2022-09-01T22:06:51.566Z,4.15
2022-09-01T22:09:20.614Z,4.78
2022-09-01T22:11:48.910Z,4.70
2022-09-01T22:14:16.442Z,4.25
2022-09-01T22:16:43.921Z,5.20
2022-09-01T22:19:11.006Z,4.75
2022-09-01T22:21:41.669Z,4.82
2022-09-01T22:24:09.050Z,5.03
2022-09-01T22:26:36.507Z,5.30
2022-09-01T22:29:06.896Z,5.13
2022-09-01T22:31:37.774Z,4.17
2022-09-01T22:34:06.296Z,4.35
2022-09-01T22:36:39.777Z,5.18
2022-09-01T22:39:09.395Z,4.75
2022-09-01T22:41:38.144Z,4.25
2022-09-01T22:44:05.498Z,4.40
2022-09-01T22:46:35.569Z,4.80
2022-09-01T22:49:03.277Z,4.28
2022-09-01T22:51:32.151Z,4.60
2022-09-01T22:53:59.465Z,4.38
2022-09-01T22:56:29.566Z,4.82
2022-09-01T22:59:01.546Z,5.00
2022-09-01T23:01:33.150Z,4.43
2022-09-01T23:04:01.885Z,4.35
2022-09-01T23:06:30.657Z,4.63
2022-09-01T23:08:59.848Z,4.47
2022-09-01T23:11:27.557Z,4.28
2022-09-01T23:13:55.772Z,4.60
2022-09-01T23:16:25.194Z,4.10
2022-09-01T23:18:53.552Z,4.15
2022-09-01T23:21:24.080Z,4.68
2022-09-01T23:23:57.390Z,4.03
2022-09-01T23:26:27.812Z,4.15
2022-09-01T23:28:55.556Z,4.00
2022-09-01T23:31:25.225Z,3.95
2022-09-01T23:33:52.955Z,4.28
2022-09-01T23:36:23.931Z,4.53
2022-09-01T23:41:23.342Z,3.95
2022-09-01T23:43:52.942Z,3.60
2022-09-01T23:46:29.472Z,4.70
2022-09-01T23:48:57.491Z,4.40
2022-09-01T23:51:25.702Z,3.63
2022-09-01T23:53:53.363Z,3.80
2022-09-01T23:56:23.555Z,3.95
2022-09-01T23:58:51.218Z,4.28
